createdAt,value
2022-11-09T00:00:11.025Z,18.57
2022-11-09T00:01:44.647Z,17.90
2022-11-09T00:03:18.505Z,18.47
2022-11-09T00:04:51.742Z,18.07
2022-11-09T00:06:25.227Z,17.90
2022-11-09T00:07:58.286Z,18.47
2022-11-09T00:09:31.367Z,17.30
2022-11-09T00:11:05.414Z,18.70
2022-11-09T00:12:38.527Z,19.03
2022-11-09T00:14:15.615Z,18.03
2022-11-09T00:15:48.701Z,18.40
2022-11-09T00:17:21.713Z,18.87
2022-11-09T00:18:56.205Z,17.17
2022-11-09T00:20:28.323Z,18.97
2022-11-09T00:22:01.360Z,17.63
2022-11-09T00:23:33.525Z,19.13
2022-11-09T00:25:07.567Z,18.87
2022-11-09T00:26:40.641Z,19.40
2022-11-09T00:28:13.717Z,19.53
2022-11-09T00:29:46.742Z,18.73
2022-11-09T00:31:22.122Z,18.97
2022-11-09T00:32:56.239Z,19.13
2022-11-09T00:34:30.653Z,19.30
2022-11-09T00:36:08.356Z,20.50
2022-11-09T00:37:41.421Z,19.60
2022-11-09T00:39:16.574Z,19.43
2022-11-09T00:40:49.963Z,20.30
2022-11-09T00:42:23.038Z,18.77
2022-11-09T00:43:57.490Z,19.63
2022-11-09T00:45:30.848Z,20.10
2022-11-09T00:47:04.054Z,19.83
2022-11-09T00:48:37.268Z,20.07
2022-11-09T00:50:12.186Z,19.50
2022-11-09T00:51:45.273Z,20.07
2022-11-09T00:53:18.681Z,19.37
2022-11-09T00:54:51.979Z,20.60
2022-11-09T00:56:25.470Z,19.83
2022-11-09T00:57:58.528Z,20.47
2022-11-09T00:59:31.643Z,20.23
2022-11-09T01:01:08.659Z,21.37
2022-11-09T01:02:41.747Z,21.20
2022-11-09T01:04:15.044Z,22.10
2022-11-09T01:05:49.966Z,21.40
2022-11-09T01:07:23.907Z,20.90
2022-11-09T01:08:56.976Z,20.77
2022-11-09T01:10:30.043Z,21.40
2022-11-09T01:12:03.089Z,22.03
2022-11-09T01:13:36.107Z,21.57
2022-11-09T01:15:10.019Z,20.40
2022-11-09T01:16:43.182Z,21.53
2022-11-09T01:18:17.329Z,21.23
2022-11-09T01:19:50.367Z,21.57
2022-11-09T01:21:25.020Z,20.97
2022-11-09T01:22:58.119Z,21.27
2022-11-09T01:24:33.892Z,20.77
2022-11-09T01:26:08.159Z,21.93
2022-11-09T01:27:41.180Z,21.00
2022-11-09T01:29:14.312Z,20.70
2022-11-09T01:30:47.400Z,22.33
2022-11-09T01:32:20.455Z,21.23
2022-11-09T01:33:53.676Z,20.57
2022-11-09T01:35:26.727Z,21.77
2022-11-09T01:37:01.120Z,20.53
2022-11-09T01:38:37.695Z,21.17
2022-11-09T01:40:12.023Z,21.00
2022-11-09T01:41:45.069Z,20.67
2022-11-09T01:43:22.028Z,21.20
2022-11-09T01:45:23.873Z,20.17
2022-11-09T01:47:00.576Z,20.83
2022-11-09T01:48:39.775Z,20.63
2022-11-09T01:50:14.810Z,20.60
2022-11-09T01:51:54.183Z,21.27
2022-11-09T01:53:32.079Z,20.77
2022-11-09T01:55:08.744Z,20.93
2022-11-09T01:56:42.152Z,20.17
2022-11-09T01:58:19.307Z,20.10
2022-11-09T01:59:58.040Z,20.37
2022-11-09T02:01:32.721Z,20.63
2022-11-09T02:03:10.681Z,19.13
2022-11-09T02:04:50.536Z,20.50
2022-11-09T02:06:25.830Z,19.47
2022-11-09T02:08:01.768Z,19.67
2022-11-09T02:09:44.951Z,19.63
2022-11-09T02:11:20.772Z,19.37
2022-11-09T02:12:55.401Z,19.43
2022-11-09T02:14:30.450Z,19.40
2022-11-09T02:16:04.644Z,19.40
2022-11-09T02:17:38.657Z,19.17
2022-11-09T02:19:11.074Z,19.37
2022-11-09T02:20:50.599Z,19.53
2022-11-09T02:22:23.657Z,17.97
2022-11-09T02:23:57.267Z,19.23
2022-11-09T02:25:31.331Z,20.40
2022-11-09T02:27:07.983Z,19.83
2022-11-09T02:28:43.004Z,20.40
2022-11-09T02:30:16.771Z,19.10
2022-11-09T02:31:54.530Z,19.30
2022-11-09T02:33:27.781Z,18.47
2022-11-09T02:35:01.864Z,19.27
2022-11-09T02:36:36.335Z,19.23
2022-11-09T02:38:12.867Z,20.30
2022-11-09T02:39:46.122Z,18.43
2022-11-09T02:41:22.830Z,19.23
2022-11-09T02:42:56.239Z,19.10
2022-11-09T02:44:30.635Z,19.60
2022-11-09T02:46:03.803Z,18.47
2022-11-09T02:47:36.822Z,18.60
2022-11-09T02:49:11.952Z,19.33
2022-11-09T02:50:45.041Z,20.03
2022-11-09T02:52:19.865Z,18.57
2022-11-09T02:53:52.958Z,18.70
2022-11-09T02:55:28.033Z,18.07
2022-11-09T02:57:01.164Z,18.90
2022-11-09T02:58:34.804Z,18.13
2022-11-09T03:00:08.162Z,19.00
2022-11-09T03:01:41.521Z,17.83
2022-11-09T03:03:14.628Z,18.77
2022-11-09T03:04:49.290Z,18.23
2022-11-09T03:06:34.155Z,18.30
2022-11-09T03:08:10.872Z,18.80
2022-11-09T03:09:43.994Z,17.70
2022-11-09T03:11:17.768Z,17.77
2022-11-09T03:12:49.959Z,18.27
2022-11-09T03:14:23.036Z,17.27
2022-11-09T03:16:05.290Z,17.73
2022-11-09T03:17:41.376Z,18.33
2022-11-09T03:19:14.625Z,17.97
2022-11-09T03:20:48.422Z,17.77
2022-11-09T03:22:23.290Z,17.30
2022-11-09T03:23:57.891Z,17.93
2022-11-09T03:25:31.021Z,18.13
2022-11-09T03:27:05.976Z,18.57
2022-11-09T03:28:39.133Z,17.57
2022-11-09T03:30:12.874Z,17.43
2022-11-09T03:31:46.370Z,17.37
2022-11-09T03:33:19.955Z,17.60
2022-11-09T03:34:52.338Z,18.43
2022-11-09T03:36:26.161Z,17.77
2022-11-09T03:37:59.374Z,17.40
2022-11-09T03:39:34.159Z,18.07
2022-11-09T03:41:06.340Z,18.63
2022-11-09T03:42:45.745Z,17.60
2022-11-09T03:44:18.033Z,17.67
2022-11-09T03:45:51.097Z,17.33
2022-11-09T03:47:24.208Z,18.17
2022-11-09T03:48:57.293Z,17.97
2022-11-09T03:50:32.160Z,17.83
2022-11-09T03:52:05.491Z,18.13
2022-11-09T03:53:38.572Z,17.37
2022-11-09T03:55:15.420Z,17.83
2022-11-09T03:56:48.511Z,17.30
2022-11-09T03:58:21.614Z,18.47
2022-11-09T03:59:54.652Z,17.30
2022-11-09T04:01:27.888Z,17.87
2022-11-09T04:03:01.179Z,18.13
2022-11-09T04:04:34.336Z,16.67
2022-11-09T04:06:07.468Z,17.73
2022-11-09T04:07:40.657Z,17.20
2022-11-09T04:09:13.971Z,18.10
2022-11-09T04:10:48.520Z,16.10
2022-11-09T04:12:21.609Z,16.50
2022-11-09T04:13:54.647Z,16.97
2022-11-09T04:15:27.755Z,16.77
2022-11-09T04:17:00.820Z,16.53
2022-11-09T04:18:33.876Z,17.03
2022-11-09T04:20:08.474Z,17.93
2022-11-09T04:21:41.526Z,17.80
2022-11-09T04:23:14.210Z,17.00
2022-11-09T04:24:47.254Z,17.87
2022-11-09T04:26:21.677Z,17.33
2022-11-09T04:27:58.108Z,17.53
2022-11-09T04:29:31.450Z,17.10
2022-11-09T04:31:04.743Z,16.97
2022-11-09T04:32:37.757Z,16.53
2022-11-09T04:34:10.838Z,17.67
2022-11-09T04:35:44.012Z,16.47
2022-11-09T04:37:17.056Z,16.43
2022-11-09T04:38:50.392Z,16.53
2022-11-09T04:40:23.983Z,17.47
2022-11-09T04:41:58.370Z,17.60
2022-11-09T04:43:31.516Z,17.50
2022-11-09T04:45:04.909Z,15.47
2022-11-09T04:46:37.953Z,16.47
2022-11-09T04:48:12.819Z,16.40
2022-11-09T04:49:46.318Z,16.87
2022-11-09T04:51:19.509Z,16.30
2022-11-09T04:52:51.657Z,15.90
2022-11-09T04:54:24.716Z,16.73
2022-11-09T04:55:58.398Z,17.23
2022-11-09T04:57:32.949Z,16.27
2022-11-09T04:59:06.009Z,16.47
2022-11-09T05:00:39.165Z,15.97
2022-11-09T05:02:12.197Z,16.63
2022-11-09T05:03:45.308Z,16.53
2022-11-09T05:05:17.407Z,16.33
2022-11-09T05:06:50.509Z,16.10
2022-11-09T05:08:23.813Z,15.83
2022-11-09T05:09:55.839Z,16.97
2022-11-09T05:11:29.373Z,16.27
2022-11-09T05:13:05.773Z,16.67
2022-11-09T05:14:38.871Z,16.47
2022-11-09T05:16:12.054Z,15.00
2022-11-09T05:17:45.239Z,16.03
2022-11-09T05:19:18.333Z,16.00
2022-11-09T05:20:51.469Z,16.40
2022-11-09T05:22:41.778Z,17.07
2022-11-09T05:24:15.031Z,16.30
2022-11-09T05:25:47.365Z,16.53
2022-11-09T05:27:20.436Z,16.53
2022-11-09T05:28:55.146Z,16.83
2022-11-09T05:30:28.411Z,16.97
2022-11-09T05:32:01.481Z,16.17
2022-11-09T05:33:34.775Z,16.60
2022-11-09T05:35:08.653Z,17.27
2022-11-09T05:36:41.730Z,16.63
2022-11-09T05:38:14.759Z,17.23
2022-11-09T05:39:47.805Z,17.27
2022-11-09T05:41:21.062Z,18.00
2022-11-09T05:42:56.040Z,17.20
2022-11-09T05:44:30.598Z,17.20
2022-11-09T05:46:06.596Z,16.70
2022-11-09T05:47:40.270Z,17.43
2022-11-09T05:49:13.314Z,16.33
2022-11-09T05:50:46.569Z,16.40
2022-11-09T05:52:31.145Z,16.63
2022-11-09T05:54:04.728Z,17.10
2022-11-09T05:55:37.884Z,17.53
2022-11-09T05:57:10.966Z,16.70
2022-11-09T05:58:44.274Z,16.87
2022-11-09T06:00:19.525Z,17.93
2022-11-09T06:01:52.670Z,17.23
2022-11-09T06:03:25.742Z,17.50
2022-11-09T06:04:59.362Z,16.43
2022-11-09T06:06:32.451Z,17.40
2022-11-09T06:08:06.620Z,17.53
2022-11-09T06:09:39.694Z,18.10
2022-11-09T06:11:19.922Z,17.07
2022-11-09T06:12:56.024Z,17.47
2022-11-09T06:14:29.047Z,17.00
2022-11-09T06:16:05.558Z,17.23
2022-11-09T06:17:38.592Z,16.20
2022-11-09T06:19:11.680Z,16.83
2022-11-09T06:20:44.719Z,16.40
2022-11-09T06:22:17.813Z,17.23
2022-11-09T06:23:50.881Z,16.23
2022-11-09T06:25:24.428Z,16.53
2022-11-09T06:26:58.515Z,16.10
2022-11-09T06:28:31.669Z,16.33
2022-11-09T06:30:04.289Z,16.77
2022-11-09T06:31:38.775Z,16.03
2022-11-09T06:33:11.840Z,15.63
2022-11-09T06:34:48.239Z,16.10
2022-11-09T06:36:21.336Z,16.03
2022-11-09T06:37:56.914Z,16.00
2022-11-09T06:39:29.980Z,16.33
2022-11-09T06:41:03.058Z,16.67
2022-11-09T06:42:36.746Z,16.90
2022-11-09T06:44:10.261Z,16.20
2022-11-09T06:45:43.292Z,16.13
2022-11-09T06:47:17.760Z,16.23
2022-11-09T06:48:54.545Z,15.63
2022-11-09T06:50:29.629Z,15.27
2022-11-09T06:52:02.968Z,15.50
2022-11-09T06:53:37.889Z,14.73
2022-11-09T06:55:11.311Z,16.00
2022-11-09T06:56:44.413Z,15.73
2022-11-09T06:58:16.865Z,15.07
2022-11-09T06:59:50.206Z,15.67
2022-11-09T07:01:29.189Z,15.37
2022-11-09T07:03:04.108Z,16.27
2022-11-09T07:04:37.154Z,15.97
2022-11-09T07:06:12.094Z,16.00
2022-11-09T07:07:45.553Z,15.40
2022-11-09T07:09:18.607Z,15.77
2022-11-09T07:10:51.822Z,15.93
2022-11-09T07:12:24.866Z,16.10
2022-11-09T07:13:57.960Z,15.03
2022-11-09T07:15:31.263Z,15.53
2022-11-09T07:17:04.355Z,15.40
2022-11-09T07:18:38.991Z,16.37
2022-11-09T07:20:14.831Z,15.07
2022-11-09T07:21:48.001Z,15.60
2022-11-09T07:23:21.326Z,15.47
2022-11-09T07:24:55.724Z,14.60
2022-11-09T07:26:28.785Z,14.83
2022-11-09T07:28:05.841Z,15.90
2022-11-09T07:29:38.924Z,15.47
2022-11-09T07:31:12.022Z,15.13
2022-11-09T07:34:39.760Z,14.80
2022-11-09T07:36:16.864Z,14.37
2022-11-09T07:37:52.985Z,14.47
2022-11-09T07:39:26.113Z,14.40
2022-11-09T07:41:00.914Z,15.17
2022-11-09T07:42:33.989Z,16.23
2022-11-09T07:44:07.038Z,14.97
2022-11-09T07:45:40.969Z,15.87
2022-11-09T07:47:18.140Z,16.40
2022-11-09T07:48:51.476Z,16.03
2022-11-09T07:50:26.271Z,16.83
2022-11-09T07:51:59.623Z,18.30
2022-11-09T07:53:32.705Z,17.80
2022-11-09T07:55:06.656Z,18.03
2022-11-09T07:56:39.812Z,17.40
2022-11-09T07:58:15.287Z,18.20
2022-11-09T07:59:48.713Z,18.93
2022-11-09T08:01:21.886Z,18.50
2022-11-09T08:02:55.464Z,18.20
2022-11-09T08:04:28.598Z,18.03
2022-11-09T08:06:03.145Z,18.97
2022-11-09T08:07:37.369Z,17.27
2022-11-09T08:09:10.490Z,18.83
2022-11-09T08:10:44.497Z,17.77
2022-11-09T08:12:17.623Z,18.33
2022-11-09T08:13:50.744Z,19.63
2022-11-09T08:15:24.126Z,18.70
2022-11-09T08:16:57.194Z,19.23
2022-11-09T08:18:30.926Z,17.77
2022-11-09T08:20:04.150Z,18.10
2022-11-09T08:21:38.748Z,17.43
2022-11-09T08:23:13.005Z,17.43
2022-11-09T08:24:46.083Z,17.20
2022-11-09T08:26:19.178Z,17.67
2022-11-09T08:27:52.440Z,17.17
2022-11-09T08:29:25.609Z,15.40
2022-11-09T08:31:00.532Z,15.80
2022-11-09T08:32:33.652Z,15.73
2022-11-09T08:34:06.692Z,15.80
2022-11-09T08:35:40.062Z,14.53
2022-11-09T08:37:14.517Z,14.53
2022-11-09T08:38:47.750Z,15.30
2022-11-09T08:40:23.102Z,15.67
2022-11-09T08:41:56.287Z,14.70
2022-11-09T08:43:29.367Z,14.97
2022-11-09T08:45:02.571Z,15.50
2022-11-09T08:46:40.865Z,15.67
2022-11-09T08:48:14.589Z,14.37
2022-11-09T08:49:48.394Z,16.03
2022-11-09T08:51:21.488Z,15.53
2022-11-09T08:52:56.306Z,15.40
2022-11-09T08:54:29.380Z,15.03
2022-11-09T08:56:02.518Z,15.03
2022-11-09T08:57:35.673Z,14.80
2022-11-09T08:59:09.818Z,14.63
2022-11-09T09:00:42.945Z,15.13
2022-11-09T09:02:16.511Z,14.30
2022-11-09T09:03:49.652Z,14.50
2022-11-09T09:05:23.206Z,14.70
2022-11-09T09:06:56.756Z,13.70
2022-11-09T09:08:31.431Z,14.33
2022-11-09T09:10:05.818Z,14.30
2022-11-09T09:11:38.893Z,14.83
2022-11-09T09:13:11.957Z,15.60
2022-11-09T09:14:45.029Z,14.40
2022-11-09T09:16:18.093Z,15.97
2022-11-09T09:17:51.298Z,15.50
2022-11-09T09:19:24.542Z,14.73
2022-11-09T09:20:57.759Z,15.20
2022-11-09T09:22:33.372Z,15.50
2022-11-09T09:24:08.416Z,15.30
2022-11-09T09:25:41.507Z,14.57
2022-11-09T09:27:14.738Z,14.70
2022-11-09T09:28:47.828Z,14.30
2022-11-09T09:30:21.089Z,14.37
2022-11-09T09:31:54.168Z,14.40
2022-11-09T09:33:27.600Z,13.47
2022-11-09T09:35:00.686Z,13.93
2022-11-09T09:36:35.492Z,13.87
2022-11-09T09:38:08.816Z,12.50
2022-11-09T09:39:43.244Z,13.37
2022-11-09T09:41:23.154Z,13.70
2022-11-09T09:42:57.200Z,12.97
2022-11-09T09:44:35.764Z,12.83
2022-11-09T09:46:17.230Z,13.67
2022-11-09T09:47:55.649Z,13.80
2022-11-09T09:49:31.544Z,13.47
2022-11-09T09:51:11.325Z,13.53
2022-11-09T09:53:10.692Z,12.43
2022-11-09T09:54:52.011Z,12.97
2022-11-09T09:56:29.553Z,12.17
2022-11-09T09:58:07.792Z,12.83
2022-11-09T09:59:43.402Z,12.33
2022-11-09T10:01:19.941Z,12.00
2022-11-09T10:02:54.177Z,11.67
2022-11-09T10:04:36.728Z,11.60
2022-11-09T10:06:27.056Z,10.63
2022-11-09T10:08:10.190Z,11.57
2022-11-09T10:10:03.313Z,10.80
2022-11-09T10:11:44.871Z,11.53
2022-11-09T10:13:42.384Z,11.57
2022-11-09T10:15:22.006Z,10.70
2022-11-09T10:17:02.707Z,10.77
2022-11-09T10:18:45.876Z,11.43
2022-11-09T10:20:49.220Z,10.50
2022-11-09T10:22:32.624Z,10.90
2022-11-09T10:24:16.768Z,11.50
2022-11-09T10:26:05.523Z,11.23
2022-11-09T10:27:51.335Z,11.73
2022-11-09T10:29:26.278Z,12.93
2022-11-09T10:31:00.557Z,13.13
2022-11-09T10:32:33.806Z,14.60
2022-11-09T10:34:18.137Z,14.10
2022-11-09T10:36:01.569Z,13.93
2022-11-09T10:37:40.197Z,14.23
2022-11-09T10:39:16.189Z,15.03
2022-11-09T10:41:28.751Z,14.90
2022-11-09T10:43:20.354Z,15.40
2022-11-09T10:45:24.772Z,15.67
2022-11-09T10:47:17.987Z,16.13
2022-11-09T10:49:21.546Z,15.27
2022-11-09T10:51:33.524Z,15.80
2022-11-09T10:53:26.548Z,15.67
2022-11-09T10:55:26.303Z,15.47
2022-11-09T10:57:22.228Z,15.87
2022-11-09T10:59:38.122Z,15.57
2022-11-09T11:01:38.292Z,15.17
2022-11-09T11:03:31.571Z,14.60
2022-11-09T11:05:31.956Z,14.50
2022-11-09T11:07:24.048Z,13.93
2022-11-09T11:09:17.646Z,14.33
2022-11-09T11:11:34.336Z,14.63
2022-11-09T11:13:29.086Z,14.63
2022-11-09T11:15:24.652Z,13.33
2022-11-09T11:17:23.876Z,13.70
2022-11-09T11:19:34.137Z,13.33
2022-11-09T11:21:27.684Z,12.80
2022-11-09T11:23:21.761Z,13.00
2022-11-09T11:25:20.321Z,12.67
2022-11-09T11:27:18.060Z,12.90
2022-11-09T11:29:23.673Z,12.63
2022-11-09T11:31:17.939Z,11.47
2022-11-09T11:33:15.631Z,12.30
2022-11-09T11:35:14.319Z,12.80
2022-11-09T11:37:17.229Z,12.60
2022-11-09T11:39:29.632Z,12.50
2022-11-09T11:41:39.277Z,14.07
2022-11-09T11:43:42.763Z,12.80
2022-11-09T11:45:42.374Z,12.47
2022-11-09T11:47:40.409Z,13.17
2022-11-09T11:49:57.474Z,13.33
2022-11-09T11:51:57.656Z,12.37
2022-11-09T11:54:01.470Z,12.93
2022-11-09T11:56:07.437Z,12.80
2022-11-09T11:58:09.975Z,11.73
2022-11-09T12:00:12.301Z,12.60
2022-11-09T12:02:27.439Z,12.70
2022-11-09T12:04:34.647Z,12.17
2022-11-09T12:06:47.816Z,12.27
2022-11-09T12:08:55.336Z,11.70
2022-11-09T12:10:56.086Z,12.67
2022-11-09T12:12:59.606Z,11.47
2022-11-09T12:15:05.547Z,12.00
2022-11-09T12:17:08.517Z,12.90
2022-11-09T12:19:35.074Z,12.00
2022-11-09T12:21:35.589Z,12.93
2022-11-09T12:23:38.857Z,11.63
2022-11-09T12:25:37.896Z,12.70
2022-11-09T12:27:49.811Z,13.17
2022-11-09T12:29:53.230Z,12.57
2022-11-09T12:31:54.591Z,12.70
2022-11-09T12:33:51.684Z,14.97
2022-11-09T12:35:51.323Z,14.80
2022-11-09T12:37:49.311Z,13.80
2022-11-09T12:39:44.813Z,14.40
2022-11-09T12:41:38.992Z,14.37
2022-11-09T12:43:34.220Z,14.47
2022-11-09T12:45:31.251Z,14.60
2022-11-09T12:47:29.839Z,14.63
2022-11-09T12:49:37.720Z,15.10
2022-11-09T12:51:31.232Z,14.40
2022-11-09T12:53:26.671Z,13.87
2022-11-09T12:55:22.400Z,15.20
2022-11-09T12:57:17.146Z,14.30
2022-11-09T12:59:22.432Z,14.73
2022-11-09T13:01:35.483Z,13.87
2022-11-09T13:03:31.168Z,14.20
2022-11-09T13:05:32.237Z,13.93
2022-11-09T13:07:50.488Z,14.37
2022-11-09T13:09:45.146Z,15.90
2022-11-09T13:11:40.017Z,14.93
2022-11-09T13:13:31.691Z,15.37
2022-11-09T13:15:26.163Z,16.23
2022-11-09T13:18:04.243Z,16.90
2022-11-09T13:19:56.903Z,16.97
2022-11-09T13:21:48.909Z,15.77
2022-11-09T13:23:59.843Z,16.67
2022-11-09T13:25:53.822Z,16.17
2022-11-09T13:27:46.418Z,15.43
2022-11-09T13:29:55.107Z,17.27
2022-11-09T13:32:24.981Z,16.43
2022-11-09T13:34:44.768Z,16.20
2022-11-09T13:36:36.248Z,16.43
2022-11-09T13:38:30.370Z,19.07
2022-11-09T13:40:44.717Z,18.10
2022-11-09T13:42:37.853Z,17.87
2022-11-09T13:44:34.141Z,17.90
2022-11-09T13:46:30.543Z,17.97
2022-11-09T13:48:41.836Z,18.77
2022-11-09T13:50:35.271Z,17.93
2022-11-09T13:52:50.037Z,18.70
2022-11-09T13:54:45.414Z,18.97
2022-11-09T13:56:40.865Z,17.43
2022-11-09T13:58:38.191Z,19.37
2022-11-09T14:00:30.302Z,18.93
2022-11-09T14:02:23.640Z,19.63
2022-11-09T14:04:27.802Z,19.77
2022-11-09T14:06:20.267Z,19.63
2022-11-09T14:08:21.564Z,19.23
2022-11-09T14:10:24.357Z,19.17
2022-11-09T14:12:32.950Z,19.80
2022-11-09T14:14:55.804Z,20.80
2022-11-09T14:16:53.792Z,20.63
2022-11-09T14:18:55.207Z,21.20
2022-11-09T14:20:54.857Z,20.77
2022-11-09T14:22:46.660Z,20.17
2022-11-09T14:24:39.303Z,20.10
2022-11-09T14:26:31.021Z,20.27
2022-11-09T14:28:26.022Z,20.17
2022-11-09T14:30:23.058Z,22.63
2022-11-09T14:32:28.857Z,21.83
2022-11-09T14:34:22.261Z,22.23
2022-11-09T14:36:14.843Z,21.97
2022-11-09T14:38:18.494Z,21.87
2022-11-09T14:40:18.594Z,21.00
2022-11-09T14:42:18.973Z,20.53
2022-11-09T14:44:17.825Z,22.60
2022-11-09T14:46:18.133Z,21.07
2022-11-09T14:48:18.659Z,21.23
2022-11-09T14:50:17.920Z,20.97
2022-11-09T14:52:13.785Z,22.23
2022-11-09T14:54:10.221Z,21.87
2022-11-09T14:56:05.944Z,21.43
2022-11-09T14:57:58.012Z,21.47
2022-11-09T14:59:50.984Z,21.20
2022-11-09T15:01:56.731Z,21.33
2022-11-09T15:04:08.349Z,22.40
2022-11-09T15:06:08.523Z,22.17
2022-11-09T15:08:01.332Z,21.73
2022-11-09T15:09:56.381Z,22.60
2022-11-09T15:11:49.334Z,22.97
2022-11-09T15:13:42.317Z,22.20
2022-11-09T15:15:36.483Z,23.03
2022-11-09T15:17:31.343Z,22.23
2022-11-09T15:19:25.401Z,22.30
2022-11-09T15:21:20.017Z,22.90
2022-11-09T15:23:24.239Z,22.60
2022-11-09T15:25:26.251Z,22.73
2022-11-09T15:27:32.994Z,22.90
2022-11-09T15:29:35.341Z,23.87
2022-11-09T15:31:28.497Z,23.43
2022-11-09T15:33:25.375Z,22.00
2022-11-09T15:35:19.182Z,23.13
2022-11-09T15:37:23.331Z,22.27
2022-11-09T15:39:17.621Z,23.63
2022-11-09T15:41:12.807Z,23.70
2022-11-09T15:43:04.314Z,22.90
2022-11-09T15:44:57.912Z,23.03
2022-11-09T15:46:53.365Z,23.40
2022-11-09T15:48:46.450Z,23.23
2022-11-09T15:50:38.642Z,23.13
2022-11-09T15:52:30.194Z,23.33
2022-11-09T15:54:22.325Z,23.83
2022-11-09T15:56:17.838Z,22.70
2022-11-09T15:58:12.536Z,22.47
2022-11-09T16:00:12.602Z,22.60
2022-11-09T16:02:07.376Z,22.27
2022-11-09T16:03:58.778Z,21.33
2022-11-09T16:05:50.570Z,23.17
2022-11-09T16:07:49.575Z,23.23
2022-11-09T16:09:42.142Z,21.83
2022-11-09T16:11:33.688Z,21.20
2022-11-09T16:13:25.231Z,21.37
2022-11-09T16:15:16.875Z,21.77
2022-11-09T16:17:09.707Z,22.43
2022-11-09T16:19:01.798Z,22.37
2022-11-09T16:20:53.362Z,22.57
2022-11-09T16:22:44.873Z,23.57
2022-11-09T16:24:36.550Z,21.77
2022-11-09T16:26:28.478Z,21.77
2022-11-09T16:28:21.392Z,22.00
2022-11-09T16:30:13.532Z,21.87
2022-11-09T16:32:05.138Z,22.50
2022-11-09T16:33:57.841Z,21.40
2022-11-09T16:35:50.008Z,21.20
2022-11-09T16:37:42.029Z,22.50
2022-11-09T16:39:35.387Z,21.73
2022-11-09T16:41:27.132Z,21.53
2022-11-09T16:43:18.813Z,22.03
2022-11-09T16:45:13.305Z,22.13
2022-11-09T16:47:08.610Z,20.93
2022-11-09T16:49:03.423Z,20.23
2022-11-09T16:50:55.415Z,20.70
2022-11-09T16:52:46.926Z,20.47
2022-11-09T16:54:38.743Z,20.87
2022-11-09T16:56:30.201Z,20.93
2022-11-09T16:58:21.848Z,20.03
2022-11-09T17:00:15.603Z,19.63
2022-11-09T17:02:07.434Z,19.70
2022-11-09T17:03:59.103Z,20.17
2022-11-09T17:05:52.045Z,20.67
2022-11-09T17:07:43.745Z,20.00
2022-11-09T17:09:35.835Z,21.27
2022-11-09T17:11:27.239Z,19.47
2022-11-09T17:13:18.792Z,19.37
2022-11-09T17:15:11.594Z,19.23
2022-11-09T17:17:03.149Z,18.23
2022-11-09T17:18:54.882Z,18.70
2022-11-09T17:20:48.814Z,18.77
2022-11-09T17:22:46.107Z,18.90
2022-11-09T17:24:38.113Z,19.23
2022-11-09T17:26:32.568Z,19.03
2022-11-09T17:28:24.442Z,19.37
2022-11-09T17:30:16.487Z,18.47
2022-11-09T17:32:09.920Z,18.00
2022-11-09T17:34:01.958Z,18.57
2022-11-09T17:36:00.290Z,18.40
2022-11-09T17:37:53.259Z,17.73
2022-11-09T17:39:44.882Z,17.50
2022-11-09T17:41:42.272Z,17.53
2022-11-09T17:43:37.122Z,17.93
2022-11-09T17:45:28.702Z,16.43
2022-11-09T17:47:20.109Z,17.13
2022-11-09T17:49:11.919Z,16.13
2022-11-09T17:51:04.094Z,17.13
2022-11-09T17:52:57.210Z,17.23
2022-11-09T17:54:49.055Z,17.17
2022-11-09T17:56:40.388Z,18.43
2022-11-09T17:58:31.862Z,16.70
2022-11-09T18:00:24.217Z,15.90
2022-11-09T18:02:18.507Z,17.20
2022-11-09T18:04:11.878Z,16.50
2022-11-09T18:06:03.810Z,17.07
2022-11-09T18:07:56.550Z,15.93
2022-11-09T18:09:48.268Z,16.67
2022-11-09T18:11:39.826Z,16.47
2022-11-09T18:13:31.373Z,16.80
2022-11-09T18:15:22.754Z,16.90
2022-11-09T18:17:15.053Z,17.20
2022-11-09T18:19:06.859Z,16.97
2022-11-09T18:20:58.309Z,15.87
2022-11-09T18:22:52.204Z,15.27
2022-11-09T18:24:45.368Z,16.60
2022-11-09T18:26:37.025Z,15.57
2022-11-09T18:28:29.262Z,15.60
2022-11-09T18:30:22.647Z,16.53
2022-11-09T18:32:14.155Z,16.07
2022-11-09T18:34:05.766Z,16.27
2022-11-09T18:35:59.287Z,15.30
2022-11-09T18:37:50.851Z,15.60
2022-11-09T18:39:42.228Z,15.90
2022-11-09T18:41:35.176Z,15.53
2022-11-09T18:43:26.940Z,15.73
2022-11-09T18:45:18.518Z,15.87
2022-11-09T18:47:10.155Z,16.27
2022-11-09T18:49:01.767Z,18.70
2022-11-09T18:50:54.219Z,16.63
2022-11-09T18:52:46.142Z,15.90
2022-11-09T18:54:37.867Z,15.13
2022-11-09T18:56:29.256Z,14.40
2022-11-09T18:58:22.458Z,16.00
2022-11-09T19:00:15.378Z,14.73
2022-11-09T19:02:08.846Z,15.80
2022-11-09T19:04:01.884Z,15.53
2022-11-09T19:05:53.922Z,15.93
2022-11-09T19:07:45.598Z,15.50
2022-11-09T19:09:38.847Z,15.03
2022-11-09T19:11:31.704Z,14.57
2022-11-09T19:13:24.560Z,15.73
2022-11-09T19:15:16.404Z,16.40
2022-11-09T19:17:11.478Z,15.73
2022-11-09T19:19:03.637Z,17.03
2022-11-09T19:20:55.205Z,15.90
2022-11-09T19:22:46.912Z,16.70
2022-11-09T19:24:38.267Z,16.03
2022-11-09T19:26:30.065Z,16.30
2022-11-09T19:28:22.245Z,16.80
2022-11-09T19:30:15.723Z,16.63
2022-11-09T19:32:07.369Z,15.83
2022-11-09T19:33:59.058Z,16.20
2022-11-09T19:36:15.046Z,17.57
2022-11-09T19:38:06.523Z,16.67
2022-11-09T19:39:58.566Z,16.37
2022-11-09T19:41:50.040Z,16.40
2022-11-09T19:43:41.563Z,17.27
2022-11-09T19:45:34.657Z,16.93
2022-11-09T19:47:26.342Z,18.23
2022-11-09T19:49:17.910Z,18.50
2022-11-09T19:51:09.409Z,18.27
2022-11-09T19:53:00.845Z,18.97
2022-11-09T19:54:52.251Z,18.23
2022-11-09T19:56:43.722Z,19.10
2022-11-09T19:58:35.324Z,18.30
2022-11-09T20:00:27.193Z,19.27
2022-11-09T20:02:20.076Z,18.87
2022-11-09T20:04:12.169Z,19.63
2022-11-09T20:06:04.903Z,18.37
2022-11-09T20:07:56.629Z,19.70
2022-11-09T20:09:47.977Z,20.07
2022-11-09T20:11:56.635Z,19.13
2022-11-09T20:13:48.392Z,19.67
2022-11-09T20:15:40.136Z,20.50
2022-11-09T20:17:33.220Z,20.23
2022-11-09T20:19:25.368Z,20.80
2022-11-09T20:21:16.790Z,20.73
2022-11-09T20:23:08.526Z,20.23
2022-11-09T20:25:00.019Z,20.23
2022-11-09T20:26:51.302Z,20.83
2022-11-09T20:28:42.821Z,19.83
2022-11-09T20:30:34.281Z,21.80
2022-11-09T20:32:26.474Z,21.47
2022-11-09T20:34:19.183Z,20.37
2022-11-09T20:36:11.074Z,20.37
2022-11-09T20:38:02.742Z,20.77
2022-11-09T20:39:54.416Z,20.43
2022-11-09T20:41:45.909Z,21.50
2022-11-09T20:43:37.993Z,22.07
2022-11-09T20:45:29.698Z,21.47
2022-11-09T20:47:42.047Z,21.17
2022-11-09T20:49:34.488Z,21.43
2022-11-09T20:51:26.236Z,22.30
2022-11-09T20:53:17.864Z,21.23
2022-11-09T20:55:10.319Z,22.87
2022-11-09T20:57:01.788Z,21.90
2022-11-09T20:58:53.459Z,22.03
2022-11-09T21:00:44.914Z,23.23
2022-11-09T21:02:36.259Z,22.83
2022-11-09T21:04:27.850Z,23.47
2022-11-09T21:06:22.472Z,22.07
2022-11-09T21:08:14.303Z,23.30
2022-11-09T21:10:06.563Z,22.50
2022-11-09T21:12:15.436Z,23.07
2022-11-09T21:14:07.095Z,22.37
2022-11-09T21:16:06.135Z,23.17
2022-11-09T21:17:57.750Z,22.03
2022-11-09T21:19:49.266Z,23.63
2022-11-09T21:21:41.928Z,22.93
2022-11-09T21:23:51.632Z,24.73
2022-11-09T21:26:02.491Z,24.13
2022-11-09T21:28:11.319Z,23.43
2022-11-09T21:30:03.029Z,24.90
2022-11-09T21:31:54.526Z,24.70
2022-11-09T21:33:46.058Z,24.87
2022-11-09T21:35:37.496Z,24.43
2022-11-09T21:37:30.400Z,24.63
2022-11-09T21:39:22.187Z,25.10
2022-11-09T21:41:31.096Z,26.23
2022-11-09T21:43:23.315Z,25.67
2022-11-09T21:45:15.141Z,25.83
2022-11-09T21:47:07.514Z,26.50
2022-11-09T21:48:59.174Z,27.97
2022-11-09T21:50:50.497Z,26.87
2022-11-09T21:52:43.341Z,28.47
2022-11-09T21:54:35.096Z,27.67
2022-11-09T21:56:26.623Z,28.17
2022-11-09T21:58:18.311Z,27.83
2022-11-09T22:00:11.400Z,28.17
2022-11-09T22:02:02.928Z,29.30
2022-11-09T22:03:54.420Z,29.03
2022-11-09T22:05:46.028Z,29.33
2022-11-09T22:07:37.452Z,29.37
2022-11-09T22:09:50.475Z,29.80
2022-11-09T22:11:59.596Z,29.87
2022-11-09T22:14:23.255Z,28.83
2022-11-09T22:16:14.981Z,29.80
2022-11-09T22:18:06.932Z,30.10
2022-11-09T22:20:16.019Z,30.27
2022-11-09T22:22:07.868Z,31.10
2022-11-09T22:24:00.029Z,30.43
2022-11-09T22:25:52.916Z,30.77
2022-11-09T22:27:44.478Z,32.23
2022-11-09T22:29:35.970Z,32.17
2022-11-09T22:31:28.295Z,30.43
2022-11-09T22:33:24.485Z,31.60
2022-11-09T22:35:18.704Z,31.30